sensor_id;sensor_type;location;lat;lon;timestamp;pressure;altitude;pressure_sealevel;temperature;humidity
9307;BME280;4691;47.612;7.610;2022-10-16T00:00:02;98116.81;;;14.79;100.00
9307;BME280;4691;47.612;7.610;2022-10-16T00:02:28;98164.94;;;14.83;100.00
9307;BME280;4691;47.612;7.610;2022-10-16T00:04:53;98173.66;;;14.76;100.00
9307;BME280;4691;47.612;7.610;2022-10-16T00:07:27;98198.34;;;14.72;100.00
9307;BME280;4691;47.612;7.610;2022-10-16T00:09:53;98237.19;;;14.69;100.00
9307;BME280;4691;47.612;7.610;2022-10-16T00:12:18;98251.50;;;14.70;100.00
9307;BME280;4691;47.612;7.610;2022-10-16T00:14:44;98249.66;;;14.70;100.00
9307;BME280;4691;47.612;7.610;2022-10-16T00:17:09;98265.13;;;14.68;100.00
9307;BME280;4691;47.612;7.610;2022-10-16T00:19:34;98276.56;;;14.70;100.00
9307;BME280;4691;47.612;7.610;2022-10-16T00:22:00;98298.41;;;14.67;100.00
9307;BME280;4691;47.612;7.610;2022-10-16T00:24:25;98326.47;;;14.65;100.00
9307;BME280;4691;47.612;7.610;2022-10-16T00:26:50;98328.53;;;14.71;100.00
9307;BME280;4691;47.612;7.610;2022-10-16T00:29:16;98336.59;;;14.71;100.00
9307;BME280;4691;47.612;7.610;2022-10-16T00:31:41;98322.13;;;14.72;100.00
9307;BME280;4691;47.612;7.610;2022-10-16T00:34:06;98314.97;;;14.80;100.00
9307;BME280;4691;47.612;7.610;2022-10-16T00:36:34;98307.75;;;14.81;100.00
9307;BME280;4691;47.612;7.610;2022-10-16T00:38:59;98272.97;;;14.88;100.00
9307;BME280;4691;47.612;7.610;2022-10-16T00:41:26;98263.84;;;14.80;100.00
9307;BME280;4691;47.612;7.610;2022-10-16T00:43:55;98286.31;;;14.71;100.00
9307;BME280;4691;47.612;7.610;2022-10-16T00:46:41;98337.00;;;14.58;100.00
9307;BME280;4691;47.612;7.610;2022-10-16T00:51:41;98294.06;;;14.74;100.00
9307;BME280;4691;47.612;7.610;2022-10-16T00:54:12;98320.41;;;14.63;100.00
9307;BME280;4691;47.612;7.610;2022-10-16T00:56:39;98323.94;;;14.63;100.00
9307;BME280;4691;47.612;7.610;2022-10-16T00:59:11;98332.34;;;14.60;100.00
9307;BME280;4691;47.612;7.610;2022-10-16T01:01:39;98337.53;;;14.62;100.00
9307;BME280;4691;47.612;7.610;2022-10-16T01:04:04;98335.84;;;14.61;100.00
9307;BME280;4691;47.612;7.610;2022-10-16T01:06:42;98367.22;;;14.52;100.00
9307;BME280;4691;47.612;7.610;2022-10-16T01:17:56;98315.31;;;14.77;100.00
9307;BME280;4691;47.612;7.610;2022-10-16T01:20:29;98260.72;;;14.93;100.00
9307;BME280;4691;47.612;7.610;2022-10-16T01:23:01;98191.09;;;15.07;100.00
9307;BME280;4691;47.612;7.610;2022-10-16T01:28:09;98138.69;;;14.85;100.00
9307;BME280;4691;47.612;7.610;2022-10-16T01:30:38;98145.56;;;14.79;100.00
9307;BME280;4691;47.612;7.610;2022-10-16T01:33:11;98129.97;;;14.83;100.00
9307;BME280;4691;47.612;7.610;2022-10-16T01:35:46;98086.94;;;14.99;100.00
9307;BME280;4691;47.612;7.610;2022-10-16T01:38:23;98068.75;;;15.01;100.00
9307;BME280;4691;47.612;7.610;2022-10-16T01:40:55;98053.97;;;15.21;100.00
9307;BME280;4691;47.612;7.610;2022-10-16T01:43:48;97897.09;;;15.28;100.00
9307;BME280;4691;47.612;7.610;2022-10-16T01:46:18;97879.28;;;15.10;100.00
9307;BME280;4691;47.612;7.610;2022-10-16T01:48:46;97873.44;;;14.90;100.00
9307;BME280;4691;47.612;7.610;2022-10-16T01:51:13;97866.22;;;14.83;100.00
9307;BME280;4691;47.612;7.610;2022-10-16T01:53:41;97853.41;;;15.01;100.00
9307;BME280;4691;47.612;7.610;2022-10-16T01:56:11;97835.34;;;15.26;100.00
9307;BME280;4691;47.612;7.610;2022-10-16T01:58:43;97810.34;;;15.40;100.00
9307;BME280;4691;47.612;7.610;2022-10-16T02:01:13;97782.06;;;15.44;100.00
9307;BME280;4691;47.612;7.610;2022-10-16T02:03:42;97763.56;;;15.41;100.00
9307;BME280;4691;47.612;7.610;2022-10-16T02:06:08;97761.97;;;15.55;100.00
9307;BME280;4691;47.612;7.610;2022-10-16T02:08:36;97763.38;;;15.43;100.00
9307;BME280;4691;47.612;7.610;2022-10-16T02:11:02;97759.78;;;15.19;100.00
9307;BME280;4691;47.612;7.610;2022-10-16T02:13:32;97765.72;;;15.07;100.00
9307;BME280;4691;47.612;7.610;2022-10-16T02:15:58;97771.81;;;15.00;100.00
9307;BME280;4691;47.612;7.610;2022-10-16T02:19:32;97713.47;;;14.85;100.00
9307;BME280;4691;47.612;7.610;2022-10-16T02:22:01;97715.38;;;14.76;100.00
9307;BME280;4691;47.612;7.610;2022-10-16T02:27:12;97727.00;;;14.60;100.00
9307;BME280;4691;47.612;7.610;2022-10-16T02:29:43;97761.31;;;14.58;100.00
9307;BME280;4691;47.612;7.610;2022-10-16T02:32:11;97761.97;;;14.60;100.00
9307;BME280;4691;47.612;7.610;2022-10-16T02:34:39;97788.53;;;14.71;100.00
9307;BME280;4691;47.612;7.610;2022-10-16T02:37:06;97822.47;;;14.89;100.00
9307;BME280;4691;47.612;7.610;2022-10-16T02:39:32;97848.38;;;14.81;100.00
9307;BME280;4691;47.612;7.610;2022-10-16T02:41:58;97841.97;;;14.74;100.00
9307;BME280;4691;47.612;7.610;2022-10-16T02:44:23;97859.31;;;14.88;100.00
9307;BME280;4691;47.612;7.610;2022-10-16T02:46:48;97849.16;;;15.15;100.00
9307;BME280;4691;47.612;7.610;2022-10-16T02:49:14;97825.06;;;15.30;100.00
9307;BME280;4691;47.612;7.610;2022-10-16T02:51:39;97804.09;;;15.48;100.00
9307;BME280;4691;47.612;7.610;2022-10-16T02:54:04;97782.19;;;15.59;100.00
9307;BME280;4691;47.612;7.610;2022-10-16T02:56:30;97770.84;;;15.33;100.00
9307;BME280;4691;47.612;7.610;2022-10-16T02:58:56;97766.31;;;15.25;100.00
9307;BME280;4691;47.612;7.610;2022-10-16T03:01:22;97741.97;;;15.18;100.00
9307;BME280;4691;47.612;7.610;2022-10-16T03:03:47;97748.09;;;14.96;100.00
9307;BME280;4691;47.612;7.610;2022-10-16T03:06:13;97745.75;;;14.85;100.00
9307;BME280;4691;47.612;7.610;2022-10-16T03:08:38;97735.69;;;14.78;100.00
9307;BME280;4691;47.612;7.610;2022-10-16T03:11:03;97737.03;;;14.83;100.00
9307;BME280;4691;47.612;7.610;2022-10-16T03:13:29;97741.72;;;14.89;100.00
9307;BME280;4691;47.612;7.610;2022-10-16T03:15:54;97729.78;;;14.91;100.00
9307;BME280;4691;47.612;7.610;2022-10-16T03:18:19;97728.31;;;14.80;100.00
9307;BME280;4691;47.612;7.610;2022-10-16T03:20:45;97741.94;;;14.71;100.00
9307;BME280;4691;47.612;7.610;2022-10-16T03:23:10;97739.91;;;14.81;100.00
9307;BME280;4691;47.612;7.610;2022-10-16T03:25:35;97740.06;;;14.79;100.00
9307;BME280;4691;47.612;7.610;2022-10-16T03:28:01;97738.00;;;14.90;100.00
9307;BME280;4691;47.612;7.610;2022-10-16T03:30:26;97720.59;;;15.48;100.00
9307;BME280;4691;47.612;7.610;2022-10-16T03:32:52;97716.53;;;15.52;100.00
9307;BME280;4691;47.612;7.610;2022-10-16T03:35:20;97731.38;;;15.48;100.00
9307;BME280;4691;47.612;7.610;2022-10-16T03:37:45;97743.16;;;15.47;100.00
9307;BME280;4691;47.612;7.610;2022-10-16T03:40:11;97751.66;;;15.28;100.00
9307;BME280;4691;47.612;7.610;2022-10-16T03:42:36;97761.00;;;15.09;100.00
9307;BME280;4691;47.612;7.610;2022-10-16T03:45:02;97743.41;;;14.90;100.00
9307;BME280;4691;47.612;7.610;2022-10-16T03:47:30;97742.94;;;14.78;100.00
9307;BME280;4691;47.612;7.610;2022-10-16T03:49:58;97728.84;;;14.68;100.00
9307;BME280;4691;47.612;7.610;2022-10-16T03:52:23;97716.06;;;14.62;100.00
9307;BME280;4691;47.612;7.610;2022-10-16T03:54:48;97725.63;;;14.64;100.00
9307;BME280;4691;47.612;7.610;2022-10-16T03:57:14;97732.38;;;14.60;100.00
9307;BME280;4691;47.612;7.610;2022-10-16T03:59:39;97740.44;;;14.52;100.00
9307;BME280;4691;47.612;7.610;2022-10-16T04:02:04;97792.06;;;14.47;100.00
9307;BME280;4691;47.612;7.610;2022-10-16T04:04:32;97822.13;;;14.43;100.00
9307;BME280;4691;47.612;7.610;2022-10-16T04:06:57;97837.44;;;14.42;100.00
9307;BME280;4691;47.612;7.610;2022-10-16T04:09:23;97869.88;;;14.49;100.00
9307;BME280;4691;47.612;7.610;2022-10-16T04:11:50;97864.53;;;14.81;100.00
9307;BME280;4691;47.612;7.610;2022-10-16T04:14:16;97843.50;;;14.85;100.00
9307;BME280;4691;47.612;7.610;2022-10-16T04:16:41;97845.00;;;14.96;100.00
9307;BME280;4691;47.612;7.610;2022-10-16T04:19:06;97828.34;;;15.00;100.00
9307;BME280;4691;47.612;7.610;2022-10-16T04:21:31;97801.88;;;15.12;100.00
9307;BME280;4691;47.612;7.610;2022-10-16T04:23:57;97777.75;;;15.27;100.00
9307;BME280;4691;47.612;7.610;2022-10-16T04:26:22;97770.56;;;15.19;100.00
9307;BME280;4691;47.612;7.610;2022-10-16T04:28:47;97762.41;;;15.36;100.00
9307;BME280;4691;47.612;7.610;2022-10-16T04:31:13;97747.66;;;15.23;100.00
9307;BME280;4691;47.612;7.610;2022-10-16T04:33:38;97748.97;;;15.28;100.00
9307;BME280;4691;47.612;7.610;2022-10-16T04:36:04;97745.44;;;15.27;100.00
9307;BME280;4691;47.612;7.610;2022-10-16T04:38:29;97768.88;;;15.58;100.00
9307;BME280;4691;47.612;7.610;2022-10-16T04:40:55;97798.66;;;15.56;100.00
9307;BME280;4691;47.612;7.610;2022-10-16T04:43:21;97782.72;;;15.07;100.00
9307;BME280;4691;47.612;7.610;2022-10-16T04:45:46;97788.53;;;15.27;100.00
9307;BME280;4691;47.612;7.610;2022-10-16T04:48:11;97780.25;;;15.37;100.00
9307;BME280;4691;47.612;7.610;2022-10-16T04:50:37;97819.25;;;15.49;100.00
9307;BME280;4691;47.612;7.610;2022-10-16T04:53:02;97814.50;;;15.59;100.00
9307;BME280;4691;47.612;7.610;2022-10-16T04:55:28;97817.59;;;15.40;100.00
9307;BME280;4691;47.612;7.610;2022-10-16T04:57:53;97821.22;;;15.63;100.00
9307;BME280;4691;47.612;7.610;2022-10-16T05:00:18;97818.44;;;15.88;100.00
9307;BME280;4691;47.612;7.610;2022-10-16T05:02:44;97851.88;;;16.02;100.00
9307;BME280;4691;47.612;7.610;2022-10-16T05:05:09;97856.84;;;15.82;100.00
9307;BME280;4691;47.612;7.610;2022-10-16T05:07:34;97859.91;;;15.79;100.00
9307;BME280;4691;47.612;7.610;2022-10-16T05:10:00;97851.03;;;15.62;100.00
9307;BME280;4691;47.612;7.610;2022-10-16T05:12:25;97855.38;;;15.71;100.00
9307;BME280;4691;47.612;7.610;2022-10-16T05:14:50;97866.00;;;15.64;100.00
9307;BME280;4691;47.612;7.610;2022-10-16T05:17:16;97871.03;;;15.67;100.00
9307;BME280;4691;47.612;7.610;2022-10-16T05:19:41;97872.81;;;15.92;100.00
9307;BME280;4691;47.612;7.610;2022-10-16T05:22:06;97879.88;;;15.93;100.00
9307;BME280;4691;47.612;7.610;2022-10-16T05:24:32;97897.28;;;15.82;100.00
9307;BME280;4691;47.612;7.610;2022-10-16T05:26:57;97893.50;;;15.99;100.00
9307;BME280;4691;47.612;7.610;2022-10-16T05:29:23;97901.69;;;15.75;100.00
9307;BME280;4691;47.612;7.610;2022-10-16T05:31:52;97907.84;;;15.44;100.00
9307;BME280;4691;47.612;7.610;2022-10-16T05:34:18;97906.06;;;15.76;100.00
9307;BME280;4691;47.612;7.610;2022-10-16T05:36:43;97900.91;;;15.50;100.00
9307;BME280;4691;47.612;7.610;2022-10-16T05:39:10;97896.06;;;15.37;100.00
9307;BME280;4691;47.612;7.610;2022-10-16T05:41:36;97901.34;;;15.78;100.00
9307;BME280;4691;47.612;7.610;2022-10-16T05:44:04;97911.69;;;15.50;100.00
9307;BME280;4691;47.612;7.610;2022-10-16T05:46:29;97894.63;;;14.93;100.00
9307;BME280;4691;47.612;7.610;2022-10-16T05:48:55;97885.38;;;14.71;100.00
9307;BME280;4691;47.612;7.610;2022-10-16T05:51:20;97869.56;;;14.68;100.00
9307;BME280;4691;47.612;7.610;2022-10-16T05:53:45;97855.78;;;14.63;100.00
9307;BME280;4691;47.612;7.610;2022-10-16T05:56:11;97852.44;;;14.61;100.00
9307;BME280;4691;47.612;7.610;2022-10-16T05:58:38;97848.75;;;14.62;100.00
9307;BME280;4691;47.612;7.610;2022-10-16T06:01:09;97847.03;;;14.61;100.00
9307;BME280;4691;47.612;7.610;2022-10-16T06:03:35;97858.97;;;14.58;100.00
9307;BME280;4691;47.612;7.610;2022-10-16T06:06:11;97861.66;;;14.58;100.00
9307;BME280;4691;47.612;7.610;2022-10-16T06:08:36;97870.56;;;14.59;100.00
9307;BME280;4691;47.612;7.610;2022-10-16T06:11:07;97872.13;;;14.70;100.00
9307;BME280;4691;47.612;7.610;2022-10-16T06:13:35;97904.56;;;14.76;100.00
9307;BME280;4691;47.612;7.610;2022-10-16T06:16:01;97920.00;;;15.32;100.00
9307;BME280;4691;47.612;7.610;2022-10-16T06:18:28;97899.03;;;15.58;100.00
9307;BME280;4691;47.612;7.610;2022-10-16T06:20:54;97889.66;;;15.38;100.00
9307;BME280;4691;47.612;7.610;2022-10-16T06:23:20;97892.00;;;15.49;100.00
9307;BME280;4691;47.612;7.610;2022-10-16T06:25:45;97903.50;;;15.91;100.00
9307;BME280;4691;47.612;7.610;2022-10-16T06:28:11;97923.31;;;15.50;100.00
9307;BME280;4691;47.612;7.610;2022-10-16T06:30:36;97914.94;;;15.20;100.00
9307;BME280;4691;47.612;7.610;2022-10-16T06:33:01;97917.00;;;15.02;100.00
9307;BME280;4691;47.612;7.610;2022-10-16T06:35:26;97897.13;;;14.95;100.00
9307;BME280;4691;47.612;7.610;2022-10-16T06:37:53;97898.34;;;15.00;100.00
9307;BME280;4691;47.612;7.610;2022-10-16T06:40:18;97900.50;;;14.97;100.00
9307;BME280;4691;47.612;7.610;2022-10-16T06:42:43;97898.16;;;15.02;100.00
9307;BME280;4691;47.612;7.610;2022-10-16T06:45:09;97912.28;;;15.04;100.00
9307;BME280;4691;47.612;7.610;2022-10-16T06:47:35;97906.56;;;15.07;100.00
9307;BME280;4691;47.612;7.610;2022-10-16T06:50:00;97923.22;;;15.11;100.00
9307;BME280;4691;47.612;7.610;2022-10-16T06:52:27;97928.94;;;14.99;100.00
9307;BME280;4691;47.612;7.610;2022-10-16T06:54:53;97960.56;;;14.89;100.00
9307;BME280;4691;47.612;7.610;2022-10-16T06:57:18;97977.06;;;14.94;100.00
9307;BME280;4691;47.612;7.610;2022-10-16T06:59:44;97997.75;;;15.02;100.00
9307;BME280;4691;47.612;7.610;2022-10-16T07:02:09;98019.97;;;15.12;100.00
9307;BME280;4691;47.612;7.610;2022-10-16T07:04:36;98022.31;;;15.15;100.00
9307;BME280;4691;47.612;7.610;2022-10-16T07:07:02;98019.47;;;15.25;100.00
9307;BME280;4691;47.612;7.610;2022-10-16T07:09:27;98012.88;;;15.36;100.00
9307;BME280;4691;47.612;7.610;2022-10-16T07:11:52;98014.91;;;15.50;100.00
9307;BME280;4691;47.612;7.610;2022-10-16T07:14:20;98003.75;;;15.61;100.00
9307;BME280;4691;47.612;7.610;2022-10-16T07:16:46;98004.28;;;15.73;100.00
9307;BME280;4691;47.612;7.610;2022-10-16T07:19:12;97992.31;;;15.76;100.00
9307;BME280;4691;47.612;7.610;2022-10-16T07:21:39;97982.50;;;15.91;100.00
9307;BME280;4691;47.612;7.610;2022-10-16T07:24:06;97978.75;;;16.00;100.00
9307;BME280;4691;47.612;7.610;2022-10-16T07:26:35;97981.59;;;16.07;100.00
9307;BME280;4691;47.612;7.610;2022-10-16T07:29:01;97983.47;;;16.06;100.00
9307;BME280;4691;47.612;7.610;2022-10-16T07:31:27;97984.75;;;16.19;100.00
9307;BME280;4691;47.612;7.610;2022-10-16T07:33:55;97991.66;;;16.21;100.00
9307;BME280;4691;47.612;7.610;2022-10-16T07:36:21;97985.34;;;16.37;100.00
9307;BME280;4691;47.612;7.610;2022-10-16T07:38:46;97989.91;;;16.37;100.00
9307;BME280;4691;47.612;7.610;2022-10-16T07:41:15;97999.44;;;16.47;100.00
9307;BME280;4691;47.612;7.610;2022-10-16T07:43:49;97999.72;;;16.61;100.00
9307;BME280;4691;47.612;7.610;2022-10-16T07:46:15;98015.47;;;16.72;100.00
9307;BME280;4691;47.612;7.610;2022-10-16T07:48:42;98023.34;;;16.90;100.00
9307;BME280;4691;47.612;7.610;2022-10-16T07:51:11;98032.84;;;17.09;100.00
9307;BME280;4691;47.612;7.610;2022-10-16T07:53:37;98029.84;;;17.27;100.00
9307;BME280;4691;47.612;7.610;2022-10-16T07:56:07;98036.06;;;17.27;100.00
9307;BME280;4691;47.612;7.610;2022-10-16T07:58:34;98042.91;;;17.15;100.00
9307;BME280;4691;47.612;7.610;2022-10-16T08:01:06;98073.69;;;17.06;100.00
9307;BME280;4691;47.612;7.610;2022-10-16T08:03:31;98092.94;;;17.03;100.00
9307;BME280;4691;47.612;7.610;2022-10-16T08:05:57;98122.59;;;17.19;100.00
9307;BME280;4691;47.612;7.610;2022-10-16T08:08:25;98150.22;;;17.21;100.00
9307;BME280;4691;47.612;7.610;2022-10-16T08:10:51;98190.38;;;17.32;100.00
9307;BME280;4691;47.612;7.610;2022-10-16T08:13:22;98196.97;;;17.30;100.00
9307;BME280;4691;47.612;7.610;2022-10-16T08:15:48;98202.84;;;17.33;100.00
9307;BME280;4691;47.612;7.610;2022-10-16T08:18:15;98194.69;;;17.41;100.00
9307;BME280;4691;47.612;7.610;2022-10-16T08:20:43;98238.78;;;17.73;100.00
9307;BME280;4691;47.612;7.610;2022-10-16T08:23:12;98265.25;;;17.55;100.00
9307;BME280;4691;47.612;7.610;2022-10-16T08:25:38;98206.63;;;17.55;100.00
9307;BME280;4691;47.612;7.610;2022-10-16T08:28:06;98202.78;;;17.50;100.00
9307;BME280;4691;47.612;7.610;2022-10-16T08:30:32;98252.66;;;17.70;100.00
9307;BME280;4691;47.612;7.610;2022-10-16T08:32:58;98267.28;;;17.84;100.00
9307;BME280;4691;47.612;7.610;2022-10-16T08:35:24;98238.78;;;17.73;100.00
9307;BME280;4691;47.612;7.610;2022-10-16T08:37:49;98256.91;;;17.96;100.00
9307;BME280;4691;47.612;7.610;2022-10-16T08:40:26;98285.25;;;18.23;100.00
9307;BME280;4691;47.612;7.610;2022-10-16T08:51:01;98309.75;;;18.30;100.00
9307;BME280;4691;47.612;7.610;2022-10-16T08:53:36;98339.97;;;18.56;100.00
9307;BME280;4691;47.612;7.610;2022-10-16T08:56:03;98358.75;;;18.81;100.00
9307;BME280;4691;47.612;7.610;2022-10-16T08:58:30;98372.41;;;19.02;100.00
9307;BME280;4691;47.612;7.610;2022-10-16T09:00:58;98395.06;;;19.09;100.00
9307;BME280;4691;47.612;7.610;2022-10-16T09:03:33;98396.97;;;19.01;100.00
9307;BME280;4691;47.612;7.610;2022-10-16T09:20:09;98385.66;;;19.50;100.00
9307;BME280;4691;47.612;7.610;2022-10-16T09:22:31;98434.56;;;19.86;100.00
9307;BME280;4691;47.612;7.610;2022-10-16T09:25:00;98473.28;;;19.95;100.00
9307;BME280;4691;47.612;7.610;2022-10-16T09:27:30;98468.78;;;20.17;100.00
9307;BME280;4691;47.612;7.610;2022-10-16T09:29:55;98494.78;;;20.56;100.00
9307;BME280;4691;47.612;7.610;2022-10-16T09:32:22;98528.81;;;20.73;100.00
9307;BME280;4691;47.612;7.610;2022-10-16T09:34:50;98536.66;;;21.47;100.00
9307;BME280;4691;47.612;7.610;2022-10-16T09:37:18;98590.25;;;21.10;100.00
9307;BME280;4691;47.612;7.610;2022-10-16T09:39:46;98588.50;;;21.89;100.00
9307;BME280;4691;47.612;7.610;2022-10-16T09:42:16;98644.78;;;22.73;100.00
9307;BME280;4691;47.612;7.610;2022-10-16T09:44:42;98666.28;;;22.54;100.00
9307;BME280;4691;47.612;7.610;2022-10-16T09:47:20;98675.09;;;22.56;100.00
9307;BME280;4691;47.612;7.610;2022-10-16T09:49:57;98696.59;;;23.14;100.00
9307;BME280;4691;47.612;7.610;2022-10-16T09:52:25;98703.59;;;23.30;100.00
9307;BME280;4691;47.612;7.610;2022-10-16T09:55:16;98748.72;;;23.39;100.00
9307;BME280;4691;47.612;7.610;2022-10-16T09:57:53;98747.41;;;22.31;100.00
9307;BME280;4691;47.612;7.610;2022-10-16T10:00:19;98708.78;;;21.99;100.00
9307;BME280;4691;47.612;7.610;2022-10-16T10:02:45;98666.75;;;22.08;100.00
9307;BME280;4691;47.612;7.610;2022-10-16T10:05:25;98672.38;;;22.56;100.00
9307;BME280;4691;47.612;7.610;2022-10-16T10:07:58;98737.38;;;24.04;100.00
9307;BME280;4691;47.612;7.610;2022-10-16T10:10:27;98780.94;;;24.59;100.00
9307;BME280;4691;47.612;7.610;2022-10-16T10:12:53;98805.31;;;24.87;100.00
9307;BME280;4691;47.612;7.610;2022-10-16T10:15:19;98808.13;;;25.45;100.00
9307;BME280;4691;47.612;7.610;2022-10-16T10:17:52;98816.38;;;25.38;100.00
9307;BME280;4691;47.612;7.610;2022-10-16T10:20:35;98825.28;;;24.81;100.00
9307;BME280;4691;47.612;7.610;2022-10-16T10:23:22;98822.16;;;24.77;100.00
9307;BME280;4691;47.612;7.610;2022-10-16T10:28:42;98835.59;;;25.90;100.00
9307;BME280;4691;47.612;7.610;2022-10-16T10:31:27;98851.16;;;25.83;100.00
9307;BME280;4691;47.612;7.610;2022-10-16T10:34:11;98843.44;;;26.50;100.00
9307;BME280;4691;47.612;7.610;2022-10-16T10:36:45;98844.63;;;26.61;100.00
9307;BME280;4691;47.612;7.610;2022-10-16T10:40:04;98840.91;;;26.48;100.00
9307;BME280;4691;47.612;7.610;2022-10-16T10:42:45;98845.31;;;26.81;100.00
9307;BME280;4691;47.612;7.610;2022-10-16T10:45:21;98847.06;;;27.63;100.00
9307;BME280;4691;47.612;7.610;2022-10-16T10:55:40;98882.97;;;27.79;100.00
9307;BME280;4691;47.612;7.610;2022-10-16T11:01:14;98877.28;;;26.69;100.00
9307;BME280;4691;47.612;7.610;2022-10-16T11:06:40;98879.13;;;26.05;100.00
9307;BME280;4691;47.612;7.610;2022-10-16T11:09:16;98865.13;;;25.68;100.00
9307;BME280;4691;47.612;7.610;2022-10-16T11:11:56;98855.19;;;25.87;100.00
9307;BME280;4691;47.612;7.610;2022-10-16T11:14:26;98853.94;;;26.60;100.00
9307;BME280;4691;47.612;7.610;2022-10-16T11:16:57;98876.44;;;26.93;100.00
9307;BME280;4691;47.612;7.610;2022-10-16T11:22:23;98878.91;;;27.89;100.00
9307;BME280;4691;47.612;7.610;2022-10-16T11:27:47;98883.66;;;27.38;100.00
9307;BME280;4691;47.612;7.610;2022-10-16T11:30:22;98880.91;;;26.63;100.00
9307;BME280;4691;47.612;7.610;2022-10-16T11:33:06;98887.88;;;26.90;100.00
9307;BME280;4691;47.612;7.610;2022-10-16T11:35:43;98888.94;;;28.13;100.00
9307;BME280;4691;47.612;7.610;2022-10-16T11:38:32;98867.34;;;29.13;100.00
9307;BME280;4691;47.612;7.610;2022-10-16T11:41:14;98881.00;;;27.68;100.00
9307;BME280;4691;47.612;7.610;2022-10-16T11:43:50;98889.53;;;28.76;100.00
9307;BME280;4691;47.612;7.610;2022-10-16T11:46:22;98884.56;;;29.90;100.00
9307;BME280;4691;47.612;7.610;2022-10-16T11:49:02;98868.44;;;30.11;100.00
9307;BME280;4691;47.612;7.610;2022-10-16T11:51:54;98891.41;;;28.63;100.00
9307;BME280;4691;47.612;7.610;2022-10-16T11:54:32;98874.66;;;28.53;100.00
9307;BME280;4691;47.612;7.610;2022-10-16T11:57:07;98870.91;;;30.70;100.00
9307;BME280;4691;47.612;7.610;2022-10-16T12:02:40;98890.72;;;28.68;100.00
9307;BME280;4691;47.612;7.610;2022-10-16T12:08:08;98877.09;;;30.31;100.00
9307;BME280;4691;47.612;7.610;2022-10-16T12:10:34;98835.59;;;32.27;100.00
9307;BME280;4691;47.612;7.610;2022-10-16T12:13:48;98822.50;;;32.45;100.00
9307;BME280;4691;47.612;7.610;2022-10-16T12:15:48;98818.81;;;31.07;100.00
9307;BME280;4691;47.612;7.610;2022-10-16T12:18:22;98823.59;;;31.12;100.00
9307;BME280;4691;47.612;7.610;2022-10-16T12:20:57;98830.22;;;31.72;100.00
9307;BME280;4691;47.612;7.610;2022-10-16T12:23:24;98813.16;;;32.51;100.00
9307;BME280;4691;47.612;7.610;2022-10-16T12:25:55;98805.09;;;31.95;100.00
9307;BME280;4691;47.612;7.610;2022-10-16T12:28:25;98858.13;;;30.06;100.00
9307;BME280;4691;47.612;7.610;2022-10-16T12:30:58;98805.56;;;32.68;100.00
9307;BME280;4691;47.612;7.610;2022-10-16T12:33:27;98769.44;;;34.01;100.00
9307;BME280;4691;47.612;7.610;2022-10-16T12:35:56;98732.63;;;34.41;100.00
9307;BME280;4691;47.612;7.610;2022-10-16T12:38:27;98769.69;;;33.26;100.00
9307;BME280;4691;47.612;7.610;2022-10-16T12:41:00;98758.13;;;32.54;100.00
9307;BME280;4691;47.612;7.610;2022-10-16T12:43:39;98839.25;;;30.27;100.00
9307;BME280;4691;47.612;7.610;2022-10-16T12:48:37;98821.13;;;29.38;100.00
9307;BME280;4691;47.612;7.610;2022-10-16T12:51:25;98817.72;;;29.71;100.00
9307;BME280;4691;47.612;7.610;2022-10-16T13:49:10;98768.81;;;30.53;100.00
9307;BME280;4691;47.612;7.610;2022-10-16T13:55:18;98723.19;;;31.40;100.00
9307;BME280;4691;47.612;7.610;2022-10-16T13:58:13;98786.06;;;29.86;100.00
9307;BME280;4691;47.612;7.610;2022-10-16T14:03:52;98724.31;;;31.22;100.00
9307;BME280;4691;47.612;7.610;2022-10-16T14:06:27;98737.75;;;31.57;100.00
9307;BME280;4691;47.612;7.610;2022-10-16T14:09:12;98748.00;;;30.96;100.00
9307;BME280;4691;47.612;7.610;2022-10-16T14:11:49;98771.28;;;31.44;100.00
9307;BME280;4691;47.612;7.610;2022-10-16T14:14:33;98750.09;;;30.89;100.00
9307;BME280;4691;47.612;7.610;2022-10-16T14:17:06;98749.25;;;30.88;100.00
9307;BME280;4691;47.612;7.610;2022-10-16T14:19:38;98722.34;;;32.16;100.00
9307;BME280;4691;47.612;7.610;2022-10-16T14:22:45;98733.28;;;30.73;100.00
9307;BME280;4691;47.612;7.610;2022-10-16T14:25:53;98749.78;;;31.07;100.00
9307;BME280;4691;47.612;7.610;2022-10-16T14:28:35;98745.53;;;31.60;100.00
9307;BME280;4691;47.612;7.610;2022-10-16T14:31:38;98767.69;;;31.21;100.00
9307;BME280;4691;47.612;7.610;2022-10-16T14:34:33;98761.03;;;30.67;100.00
9307;BME280;4691;47.612;7.610;2022-10-16T14:39:50;98698.56;;;32.15;100.00
9307;BME280;4691;47.612;7.610;2022-10-16T14:42:28;98700.06;;;33.02;100.00
9307;BME280;4691;47.612;7.610;2022-10-16T14:44:59;98686.81;;;34.75;100.00
9307;BME280;4691;47.612;7.610;2022-10-16T14:47:36;98721.91;;;32.29;100.00
9307;BME280;4691;47.612;7.610;2022-10-16T14:53:17;98688.41;;;33.58;100.00
9307;BME280;4691;47.612;7.610;2022-10-16T14:58:53;98667.75;;;32.70;100.00
9307;BME280;4691;47.612;7.610;2022-10-16T15:01:23;98690.97;;;34.00;100.00
9307;BME280;4691;47.612;7.610;2022-10-16T15:03:50;98717.81;;;33.69;100.00
9307;BME280;4691;47.612;7.610;2022-10-16T15:06:28;98694.13;;;32.14;100.00
9307;BME280;4691;47.612;7.610;2022-10-16T15:11:49;98730.78;;;30.89;100.00
9307;BME280;4691;47.612;7.610;2022-10-16T15:14:22;98778.69;;;29.63;100.00
9307;BME280;4691;47.612;7.610;2022-10-16T15:16:50;98728.91;;;32.04;100.00
9307;BME280;4691;47.612;7.610;2022-10-16T15:19:15;98755.50;;;31.00;100.00
9307;BME280;4691;47.612;7.610;2022-10-16T15:21:51;98821.50;;;27.80;100.00
9307;BME280;4691;47.612;7.610;2022-10-16T15:24:17;98834.19;;;26.76;100.00
9307;BME280;4691;47.612;7.610;2022-10-16T15:26:43;98852.50;;;26.19;100.00
9307;BME280;4691;47.612;7.610;2022-10-16T15:29:11;98864.16;;;25.49;100.00
9307;BME280;4691;47.612;7.610;2022-10-16T15:31:39;98870.06;;;25.33;100.00
9307;BME280;4691;47.612;7.610;2022-10-16T15:34:10;98873.88;;;25.32;100.00
9307;BME280;4691;47.612;7.610;2022-10-16T15:36:40;98870.50;;;25.03;100.00
9307;BME280;4691;47.612;7.610;2022-10-16T15:39:13;98873.88;;;24.98;100.00
9307;BME280;4691;47.612;7.610;2022-10-16T15:41:43;98877.03;;;24.82;100.00
9307;BME280;4691;47.612;7.610;2022-10-16T15:44:11;98875.38;;;24.74;100.00
9307;BME280;4691;47.612;7.610;2022-10-16T15:46:39;98878.94;;;24.75;100.00